Time;durP1;ratioP1;P1;durP2;ratioP2;P2;SDS_P1;SDS_P2;PMS_P1;PMS_P2;Temp;Humidity;BMP_temperature;BMP_pressure;BME280_temperature;BME280_humidity;BME280_pressure;Samples;Min_cycle;Max_cycle;Signal;HPM_P1;HPM_P2
2023/03/21 00:01:55;;;;;;;24.38;13.50;;;;;;;10.38;73.98;100081.69;4990766;28;20032;-28
2023/03/21 00:04:23;;;;;;;20.05;13.20;;;;;;;10.34;73.72;100067.16;4990586;28;20409;-28
2023/03/21 00:06:49;;;;;;;21.23;12.93;;;;;;;10.60;73.17;100086.63;4990426;28;20026;-28
2023/03/21 00:09:15;;;;;;;23.63;13.77;;;;;;;10.54;73.61;100074.19;4990450;28;20194;-28
2023/03/21 00:11:40;;;;;;;23.45;14.63;;;;;;;10.67;72.17;100070.59;4990221;28;20170;-28
2023/03/21 00:14:07;;;;;;;25.23;14.20;;;;;;;10.28;73.89;100062.69;4989878;28;20116;-28
2023/03/21 00:16:34;;;;;;;21.58;14.38;;;;;;;10.12;75.00;100057.88;4972940;28;20038;-28
2023/03/21 00:19:02;;;;;;;21.48;12.52;;;;;;;9.74;76.95;100040.06;4989888;28;20031;-28
2023/03/21 00:21:31;;;;;;;21.80;13.20;;;;;;;9.39;78.05;100067.06;4990282;28;20034;-27
2023/03/21 00:23:57;;;;;;;23.90;13.57;;;;;;;9.19;78.71;100060.00;4990107;28;20042;-28
2023/03/21 00:26:23;;;;;;;20.10;13.52;;;;;;;9.29;78.53;100053.41;4989848;28;20478;-28
2023/03/21 00:28:49;;;;;;;21.15;13.40;;;;;;;9.18;79.29;100058.34;4989968;28;20079;-28
2023/03/21 00:31:16;;;;;;;19.25;13.20;;;;;;;9.17;79.57;100056.69;4989848;28;20030;-28
2023/03/21 00:33:42;;;;;;;24.92;15.35;;;;;;;9.35;78.82;100057.88;4989410;28;20060;-28
2023/03/21 00:36:09;;;;;;;23.83;14.25;;;;;;;9.28;78.71;100046.47;4989719;28;20524;-28
2023/03/21 00:38:36;;;;;;;24.67;14.70;;;;;;;9.32;79.09;100045.00;4989765;28;20023;-28
2023/03/21 00:41:10;;;;;;;24.02;14.50;;;;;;;9.35;79.12;100055.22;4989794;28;20030;-28
2023/03/21 00:43:36;;;;;;;24.88;15.40;;;;;;;9.56;77.99;100043.44;4989418;28;20061;-28
2023/03/21 00:46:02;;;;;;;24.73;15.10;;;;;;;9.37;78.88;100040.66;4989519;28;20069;-28
2023/03/21 00:48:28;;;;;;;23.92;14.07;;;;;;;9.41;78.42;100039.22;4989143;28;20117;-28
2023/03/21 00:50:56;;;;;;;28.80;15.85;;;;;;;9.09;79.81;100024.19;4989682;28;20117;-28
2023/03/21 00:53:22;;;;;;;29.83;15.32;;;;;;;8.99;81.33;100032.59;4989374;28;20102;-28
2023/03/21 00:55:48;;;;;;;28.73;14.52;;;;;;;9.10;80.65;100031.97;4989276;28;20105;-28
2023/03/21 00:58:13;;;;;;;24.00;15.75;;;;;;;9.10;80.70;100029.31;4989030;28;20445;-28
2023/03/21 01:00:39;;;;;;;26.08;15.05;;;;;;;9.39;79.46;100022.63;4989437;28;20035;-28
2023/03/21 01:03:06;;;;;;;21.80;14.63;;;;;;;9.59;78.03;100027.88;4988701;28;20492;-28
2023/03/21 01:08:27;;;;;;;26.83;15.32;;;;;;;9.81;76.33;100014.22;4989735;28;20036;-28
2023/03/21 01:10:54;;;;;;;27.58;15.60;;;;;;;9.58;77.56;100012.94;4989153;28;20030;-28
2023/03/21 01:13:22;;;;;;;24.33;15.40;;;;;;;9.46;78.47;100009.31;4989068;28;20044;-28
2023/03/21 01:15:53;;;;;;;25.42;16.17;;;;;;;9.65;77.81;99995.06;4988856;28;20807;-28
2023/03/21 01:18:21;;;;;;;25.42;15.55;;;;;;;9.68;77.38;99987.69;4988791;28;20044;-28
2023/03/21 01:20:47;;;;;;;27.08;15.98;;;;;;;9.95;76.33;99997.13;4989107;28;20089;-28
2023/03/21 01:23:17;;;;;;;28.73;17.30;;;;;;;9.72;77.40;99994.22;4988677;28;20519;-28
2023/03/21 01:25:42;;;;;;;23.35;14.70;;;;;;;9.55;78.32;99988.59;4988524;28;20114;-28
2023/03/21 01:28:09;;;;;;;24.48;14.88;;;;;;;9.13;81.14;99991.63;4988649;28;20092;-28
2023/03/21 01:30:35;;;;;;;32.60;20.23;;;;;;;9.27;80.82;99986.28;4988923;28;20056;-28
2023/03/21 01:33:00;;;;;;;28.17;16.77;;;;;;;8.96;81.55;99979.84;4988524;28;20034;-28
2023/03/21 01:35:26;;;;;;;27.08;16.27;;;;;;;9.04;82.21;99984.94;4988908;28;20018;-28
2023/03/21 01:37:51;;;;;;;26.60;15.00;;;;;;;8.95;82.78;99997.66;4988596;28;20046;-28
2023/03/21 01:40:25;;;;;;;23.27;14.20;;;;;;;9.02;82.89;99984.31;4988513;28;20041;-28
2023/03/21 01:42:51;;;;;;;29.40;18.35;;;;;;;9.30;81.50;99988.53;4988317;28;20125;-28
2023/03/21 01:45:54;;;;;;;29.83;14.88;;;;;;;9.31;81.28;99990.13;4988539;28;20686;-28
2023/03/21 01:48:21;;;;;;;23.95;15.52;;;;;;;9.18;81.44;99983.84;4988381;28;20112;-28
2023/03/21 01:50:48;;;;;;;47.73;28.93;;;;;;;9.10;82.12;99977.97;4988282;28;20088;-28
2023/03/21 01:53:14;;;;;;;29.88;16.63;;;;;;;9.09;82.19;99973.66;4988236;28;20521;-28
2023/03/21 01:55:40;;;;;;;24.98;14.75;;;;;;;8.98;82.49;99959.19;4988390;28;20031;-28
2023/03/21 01:58:09;;;;;;;29.38;15.07;;;;;;;8.65;84.31;99962.75;4987789;28;20425;-28
2023/03/21 02:00:36;;;;;;;28.73;16.35;;;;;;;8.67;83.88;99955.41;4988357;28;20026;-28
2023/03/21 02:03:07;;;;;;;27.95;16.00;;;;;;;8.70;84.24;99954.97;4987961;28;20505;-28
2023/03/21 02:05:47;;;;;;;25.65;16.05;;;;;;;9.14;81.80;99956.03;4988015;28;20637;-28
2023/03/21 02:08:13;;;;;;;23.60;14.88;;;;;;;8.99;81.86;99968.78;4987879;28;20109;-28
2023/03/21 02:10:42;;;;;;;24.63;14.88;;;;;;;8.87;81.89;99951.84;4988285;28;20287;-28
2023/03/21 02:13:08;;;;;;;26.88;14.88;;;;;;;8.98;81.91;99967.97;4987196;28;20035;-28
2023/03/21 02:15:39;;;;;;;23.83;14.70;;;;;;;8.98;81.15;99965.31;4987641;28;21450;-28
2023/03/21 02:18:19;;;;;;;25.65;14.65;;;;;;;8.67;82.52;99947.41;4987925;28;20033;-28
2023/03/21 02:20:52;;;;;;;21.73;13.50;;;;;;;8.74;82.90;99958.03;4987977;28;20030;-28
2023/03/21 02:23:36;;;;;;;24.92;14.90;;;;;;;8.99;82.24;99968.78;4987478;28;20038;-28
2023/03/21 02:26:33;;;;;;;21.83;13.52;;;;;;;8.73;82.74;99957.22;4987446;28;20034;-28
2023/03/21 02:29:10;;;;;;;29.15;14.85;;;;;;;8.52;83.10;99937.03;4987635;28;20509;-28
2023/03/21 02:32:14;;;;;;;19.95;12.95;;;;;;;8.69;83.06;99948.03;4987595;28;20030;-28
2023/03/21 02:34:59;;;;;;;30.52;16.48;;;;;;;8.76;83.23;99948.81;4987489;28;20113;-28
2023/03/21 02:37:41;;;;;;;27.35;17.30;;;;;;;8.67;83.31;99936.78;4987580;28;20104;-28
2023/03/21 02:40:29;;;;;;;30.55;18.70;;;;;;;8.82;82.29;99947.97;4987552;28;20022;-28
2023/03/21 02:42:57;;;;;;;;;;;;;;;8.74;83.08;99944.72;4987262;28;20045;-28
2023/03/21 02:45:25;;;;;;;;;;;;;;;8.74;83.00;99942.88;4987889;28;20004;-28
2023/03/21 02:47:57;;;;;;;24.60;13.32;;;;;;;8.65;84.01;99941.50;4987340;28;19945;-29
2023/03/21 02:50:44;;;;;;;26.10;14.73;;;;;;;8.85;82.95;99947.56;4987216;28;20041;-28
2023/03/21 02:53:14;;;;;;;27.70;15.77;;;;;;;8.87;83.53;99941.19;4987102;28;20145;-28
2023/03/21 02:55:41;;;;;;;28.00;17.40;;;;;;;8.82;83.69;99947.16;4987261;28;20109;-28
2023/03/21 02:58:10;;;;;;;32.50;19.10;;;;;;;9.01;82.78;99940.97;4987049;28;20086;-28
2023/03/21 03:00:37;;;;;;;27.08;16.85;;;;;;;9.03;82.74;99948.72;4987076;28;20037;-28
2023/03/21 03:03:02;;;;;;;27.67;15.63;;;;;;;8.81;83.38;99941.03;4987171;28;20030;-28
2023/03/21 03:05:34;;;;;;;23.50;15.32;;;;;;;8.76;83.92;99954.13;4986951;28;20441;-28
2023/03/21 03:08:00;;;;;;;25.08;14.48;;;;;;;8.87;84.06;99959.81;4987109;28;20030;-28
2023/03/21 03:10:34;;;;;;;24.55;14.63;;;;;;;8.79;84.09;99956.38;4987431;28;20469;-28
2023/03/21 03:13:22;;;;;;;23.42;14.05;;;;;;;8.74;84.11;99958.84;4987323;28;20022;-28
2023/03/21 03:16:14;;;;;;;24.63;14.05;;;;;;;8.78;84.72;99962.72;4987330;28;20037;-28
2023/03/21 03:18:45;;;;;;;23.95;14.60;;;;;;;9.00;83.60;99959.78;4949383;28;20038;-28
2023/03/21 03:21:19;;;;;;;25.27;15.13;;;;;;;8.97;83.45;99955.72;4987100;28;20455;-28
2023/03/21 03:23:56;;;;;;;29.83;17.33;;;;;;;9.52;80.48;99957.88;4987022;28;20035;-28
2023/03/21 03:26:40;;;;;;;27.95;15.38;;;;;;;9.19;81.59;99966.88;4990918;28;20083;-28
2023/03/21 03:29:11;;;;;;;25.00;14.93;;;;;;;8.94;82.92;99965.94;4990969;28;20411;-28
2023/03/21 03:31:55;;;;;;;26.60;14.68;;;;;;;8.63;85.29;99957.66;4991153;28;20034;-28
2023/03/21 03:34:26;;;;;;;29.58;16.02;;;;;;;8.75;84.23;99963.16;4990723;28;20395;-28
2023/03/21 03:36:56;;;;;;;24.08;15.15;;;;;;;8.53;84.93;99948.47;4990568;28;20089;-28
2023/03/21 03:39:34;;;;;;;23.25;14.45;;;;;;;8.38;86.85;99954.81;4990618;28;20481;-28
2023/03/21 03:42:07;;;;;;;29.13;16.80;;;;;;;8.54;87.29;99958.91;4990676;28;20580;-28
2023/03/21 03:44:34;;;;;;;49.80;40.17;;;;;;;8.74;85.81;99961.50;4990716;28;20113;-28
2023/03/21 03:47:18;;;;;;;31.02;20.25;;;;;;;8.83;84.77;99956.78;4990441;28;20038;-28
2023/03/21 03:49:54;;;;;;;25.30;17.40;;;;;;;8.72;85.33;99960.88;4990610;28;20061;-28
2023/03/21 03:52:30;;;;;;;41.75;27.95;;;;;;;8.66;84.98;99943.13;4990428;28;20464;-28
2023/03/21 03:54:56;;;;;;;69.28;47.58;;;;;;;9.11;83.71;99956.44;4990562;28;20022;-28
2023/03/21 03:57:24;;;;;;;60.10;34.30;;;;;;;8.92;84.12;99957.34;4990363;28;20022;-28
2023/03/21 03:59:49;;;;;;;38.53;20.85;;;;;;;8.84;84.50;99961.88;4990451;28;20078;-28
2023/03/21 04:02:16;;;;;;;25.98;15.90;;;;;;;8.99;83.41;99958.13;4990003;28;20047;-28
2023/03/21 04:04:41;;;;;;;25.95;17.15;;;;;;;8.87;83.90;99954.50;4990523;28;20097;-28
2023/03/21 04:07:07;;;;;;;25.08;16.00;;;;;;;8.99;82.74;99948.34;4990335;28;20529;-28
2023/03/21 04:09:33;;;;;;;32.10;20.38;;;;;;;8.68;84.36;99949.03;4990289;28;20038;-28
2023/03/21 04:11:58;;;;;;;30.83;19.02;;;;;;;8.55;84.48;99947.25;4989897;28;20036;-28
2023/03/21 04:14:24;;;;;;;33.05;19.38;;;;;;;8.64;84.67;99958.47;4990091;28;20038;-28
2023/03/21 04:16:51;;;;;;;30.20;18.52;;;;;;;8.28;86.65;99954.44;4990177;28;20022;-28
2023/03/21 04:19:17;;;;;;;27.15;16.90;;;;;;;8.20;86.77;99960.75;4990000;28;20147;-28
2023/03/21 04:21:43;;;;;;;31.00;17.80;;;;;;;8.44;85.61;99962.00;4989744;28;20027;-28
2023/03/21 04:24:10;;;;;;;24.02;17.02;;;;;;;8.34;85.44;99955.44;4989990;28;20026;-28
2023/03/21 04:26:37;;;;;;;49.95;26.13;;;;;;;8.14;86.50;99956.28;4989967;28;20070;-28
2023/03/21 04:29:03;;;;;;;22.60;14.10;;;;;;;8.30;85.24;99960.34;4989575;28;20061;-28
2023/03/21 04:31:30;;;;;;;33.50;19.67;;;;;;;8.13;84.80;99970.59;4989750;28;20035;-28
2023/03/21 04:34:00;;;;;;;29.60;17.02;;;;;;;7.97;85.62;99973.66;4989850;28;20033;-28
2023/03/21 04:36:32;;;;;;;32.17;15.65;;;;;;;8.14;84.61;99976.72;4988932;28;20105;-28
2023/03/21 04:39:02;;;;;;;26.50;15.25;;;;;;;8.34;83.70;99980.16;4989968;28;20422;-28
2023/03/21 04:41:28;;;;;;;25.30;15.75;;;;;;;8.40;83.38;99975.88;4989771;28;20030;-28
2023/03/21 04:43:54;;;;;;;30.40;18.00;;;;;;;8.38;84.10;99983.25;4989643;28;20026;-28
2023/03/21 04:46:20;;;;;;;86.28;38.55;;;;;;;8.55;83.54;99988.97;4989467;28;20111;-28
2023/03/21 04:48:46;;;;;;;29.10;17.83;;;;;;;8.35;84.04;99976.47;4989601;28;20523;-28
2023/03/21 04:51:12;;;;;;;46.10;30.38;;;;;;;8.54;82.83;99992.63;4972028;28;20517;-28
2023/03/21 04:53:38;;;;;;;42.22;27.83;;;;;;;8.65;82.04;99999.97;4989481;28;20034;-28
2023/03/21 04:56:05;;;;;;;34.30;22.83;;;;;;;8.74;80.88;99997.91;4989506;28;20117;-28
2023/03/21 04:58:31;;;;;;;36.10;21.80;;;;;;;8.89;80.28;100002.97;4989118;28;20062;-28
2023/03/21 05:00:56;;;;;;;33.65;20.25;;;;;;;8.90;79.88;100010.75;4989142;28;20108;-28
2023/03/21 05:03:23;;;;;;;32.28;19.20;;;;;;;8.80;80.41;100015.69;4989337;28;20536;-28
2023/03/21 05:05:48;;;;;;;31.17;19.98;;;;;;;9.02;80.27;100014.41;4989262;28;20536;-28
2023/03/21 05:08:15;;;;;;;34.40;19.83;;;;;;;9.06;79.79;100014.81;4989307;28;20065;-28
2023/03/21 05:10:41;;;;;;;33.97;22.73;;;;;;;9.32;78.13;100011.22;4988993;28;20030;-28
2023/03/21 05:13:06;;;;;;;32.67;21.08;;;;;;;9.09;78.88;100017.03;4988891;28;20473;-28
2023/03/21 05:15:32;;;;;;;31.58;20.08;;;;;;;9.18;78.44;100010.47;4988983;28;20034;-28
2023/03/21 05:17:58;;;;;;;30.10;18.65;;;;;;;9.14;78.32;100011.09;4989111;28;20113;-28
2023/03/21 05:20:24;;;;;;;30.67;18.92;;;;;;;9.14;78.49;100006.59;4988937;28;20053;-28
2023/03/21 05:22:50;;;;;;;31.50;18.30;;;;;;;9.11;78.58;100014.97;4988590;28;20168;-28
2023/03/21 05:25:19;;;;;;;32.60;18.63;;;;;;;9.22;78.62;100018.84;4988779;28;20042;-28
2023/03/21 05:27:53;;;;;;;32.15;17.55;;;;;;;8.94;80.02;100019.13;4988772;28;20034;-28
2023/03/21 05:30:19;;;;;;;32.63;18.38;;;;;;;8.95;80.77;100023.41;4988691;28;20030;-28
2023/03/21 05:32:44;;;;;;;27.20;17.42;;;;;;;8.89;81.70;100017.13;4988855;28;20034;-28
2023/03/21 05:35:10;;;;;;;28.73;17.92;;;;;;;8.91;81.45;100016.88;4988444;28;20117;-28
2023/03/21 05:37:37;;;;;;;37.08;20.85;;;;;;;8.95;81.12;100024.25;4988587;28;20030;-28
2023/03/21 05:40:05;;;;;;;36.28;21.05;;;;;;;9.25;79.44;100021.91;4988491;28;20101;-28
2023/03/21 05:42:31;;;;;;;33.30;19.77;;;;;;;9.33;80.42;100028.00;4988701;28;20081;-28
2023/03/21 05:44:57;;;;;;;44.67;26.10;;;;;;;9.41;79.86;100036.56;4988476;28;20030;-28
2023/03/21 05:47:22;;;;;;;33.30;19.55;;;;;;;9.52;78.75;100037.75;4988444;28;20112;-28
2023/03/21 05:49:48;;;;;;;33.55;19.23;;;;;;;10.02;76.67;100037.03;4988293;28;20072;-28
2023/03/21 05:52:14;;;;;;;35.42;20.13;;;;;;;9.70;77.41;100023.69;4988370;28;20034;-28
2023/03/21 05:54:39;;;;;;;29.48;16.70;;;;;;;9.72;77.92;100026.16;4988196;28;20042;-28
2023/03/21 05:57:05;;;;;;;30.92;20.55;;;;;;;9.64;77.69;100025.41;4988084;28;20534;-28
2023/03/21 05:59:30;;;;;;;24.38;14.65;;;;;;;9.89;76.31;100027.28;4988372;28;20037;-28
2023/03/21 06:01:56;;;;;;;25.27;14.23;;;;;;;9.86;76.54;100022.38;4988156;28;20022;-28
2023/03/21 06:04:21;;;;;;;37.45;20.40;;;;;;;9.82;77.10;100015.84;4987858;28;20061;-28
2023/03/21 06:06:47;;;;;;;26.45;15.38;;;;;;;9.83;76.50;100020.16;4987961;28;20034;-28
2023/03/21 06:09:12;;;;;;;58.40;32.17;;;;;;;9.84;76.86;100003.13;4988146;28;20417;-28
2023/03/21 06:11:43;;;;;;;94.15;56.38;;;;;;;9.74;77.65;100000.13;4987832;28;20056;-28
2023/03/21 06:14:08;;;;;;;26.73;15.00;;;;;;;10.06;77.45;100004.41;4987643;28;20030;-28
2023/03/21 06:16:34;;;;;;;23.23;14.00;;;;;;;10.14;76.57;99998.00;4988151;28;20034;-28
2023/03/21 06:18:59;;;;;;;24.67;14.30;;;;;;;10.37;76.67;100008.06;4987967;28;20062;-28
2023/03/21 06:21:24;;;;;;;23.58;13.43;;;;;;;10.50;75.82;100011.66;4987848;28;20084;-28
2023/03/21 06:23:51;;;;;;;24.15;13.38;;;;;;;10.49;75.81;100004.72;4987418;28;20037;-28
2023/03/21 06:26:21;;;;;;;27.58;15.18;;;;;;;10.39;77.87;100014.00;4987686;28;20035;-28
2023/03/21 06:28:50;;;;;;;24.67;14.07;;;;;;;10.30;78.09;100018.00;4987674;28;20034;-28
2023/03/21 06:31:16;;;;;;;22.02;14.88;;;;;;;10.67;76.99;100014.59;4987595;28;20524;-28
2023/03/21 06:33:41;;;;;;;23.23;13.45;;;;;;;10.59;76.82;100015.69;4987450;28;20042;-28
2023/03/21 06:36:07;;;;;;;25.85;15.13;;;;;;;10.45;76.95;100025.66;4987537;28;20026;-28
2023/03/21 06:38:36;;;;;;;25.92;16.38;;;;;;;10.90;75.85;100020.06;4987511;28;20046;-28
2023/03/21 06:41:03;;;;;;;29.08;16.75;;;;;;;10.74;76.32;100029.47;4987369;28;20033;-28
2023/03/21 06:43:30;;;;;;;26.42;16.63;;;;;;;10.76;76.46;100014.06;4987694;28;20037;-28
2023/03/21 06:45:56;;;;;;;28.45;16.92;;;;;;;11.01;75.70;100030.03;4987541;28;20394;-28
2023/03/21 06:48:21;;;;;;;30.40;15.85;;;;;;;11.10;75.46;100014.53;4987410;28;20069;-28
2023/03/21 06:50:49;;;;;;;25.48;15.35;;;;;;;11.04;75.85;100018.09;4987000;28;20105;-28
2023/03/21 06:53:15;;;;;;;30.92;17.50;;;;;;;10.84;75.99;100007.63;4987335;28;20548;-28
2023/03/21 06:55:40;;;;;;;28.45;18.58;;;;;;;11.09;76.34;100014.75;4987288;28;20034;-28
2023/03/21 06:58:06;;;;;;;26.48;15.30;;;;;;;11.13;75.81;100016.72;4986869;28;20022;-28
2023/03/21 07:00:31;;;;;;;29.98;15.85;;;;;;;11.16;75.01;100010.97;4986454;28;20038;-28
2023/03/21 07:02:57;;;;;;;29.38;16.55;;;;;;;11.10;75.77;100013.72;4987382;28;20037;-28
2023/03/21 07:05:23;;;;;;;28.13;16.73;;;;;;;10.93;75.86;100010.81;4987332;28;20568;-28
2023/03/21 07:07:48;;;;;;;31.15;17.13;;;;;;;11.06;76.59;100008.00;4987181;28;20026;-28
2023/03/21 07:10:14;;;;;;;26.27;15.60;;;;;;;11.12;76.92;100001.78;4987186;28;20037;-28
2023/03/21 07:12:40;;;;;;;27.70;15.15;;;;;;;10.85;76.56;100004.75;4986748;28;20026;-28
2023/03/21 07:15:07;;;;;;;26.60;14.50;;;;;;;10.61;77.76;100002.94;4987241;28;20034;-28
2023/03/21 07:17:32;;;;;;;26.38;14.27;;;;;;;10.79;78.10;100008.28;4987109;28;20034;-28
2023/03/21 07:19:58;;;;;;;26.08;15.32;;;;;;;11.32;76.80;100008.69;4969658;28;20093;-28
2023/03/21 07:22:24;;;;;;;28.35;15.68;;;;;;;11.41;75.48;100012.69;4986840;28;20445;-28
2023/03/21 07:24:49;;;;;;;30.50;16.13;;;;;;;11.54;74.75;100017.03;4987196;28;20026;-28
2023/03/21 07:27:16;;;;;;;25.90;13.68;;;;;;;11.37;75.87;100011.53;4987066;28;20026;-28
2023/03/21 07:29:42;;;;;;;26.38;15.00;;;;;;;11.26;76.61;100011.25;4986866;28;20034;-28
2023/03/21 07:32:09;;;;;;;26.17;14.90;;;;;;;10.92;77.52;99994.00;4986861;28;20108;-28
2023/03/21 07:34:35;;;;;;;29.65;15.95;;;;;;;11.45;77.46;100013.88;4986686;28;20425;-28
2023/03/21 07:37:00;;;;;;;29.15;15.80;;;;;;;11.93;75.39;100007.69;4987108;28;20031;-28
2023/03/21 07:39:26;;;;;;;28.48;16.40;;;;;;;12.28;73.90;100012.28;4986803;28;20085;-28
2023/03/21 07:41:54;;;;;;;29.27;15.52;;;;;;;12.43;72.19;100009.13;4987088;28;20034;-28
2023/03/21 07:44:20;;;;;;;24.48;14.10;;;;;;;12.44;72.56;100008.91;4986753;28;20038;-28
2023/03/21 07:46:46;;;;;;;26.55;14.82;;;;;;;12.51;72.82;100005.31;4986684;28;20056;-28
2023/03/21 07:49:11;;;;;;;29.65;14.45;;;;;;;12.77;72.64;100009.34;4986430;28;20027;-28
2023/03/21 07:51:37;;;;;;;25.98;15.55;;;;;;;12.65;72.71;100006.69;4986758;28;20044;-28
2023/03/21 07:54:03;;;;;;;29.63;14.98;;;;;;;12.66;72.53;99998.41;4986602;28;20041;-28
2023/03/21 07:56:28;;;;;;;29.55;16.65;;;;;;;12.66;72.68;99993.06;4969169;28;20031;-28
2023/03/21 07:58:54;;;;;;;34.78;16.65;;;;;;;12.94;72.04;100004.09;4986964;28;20517;-28
2023/03/21 08:01:20;;;;;;;31.30;17.05;;;;;;;12.96;71.73;100008.16;4969259;28;20038;-28
2023/03/21 08:03:46;;;;;;;27.45;16.45;;;;;;;13.41;70.70;100006.66;4986618;28;20161;-28
2023/03/21 08:06:14;;;;;;;24.48;14.95;;;;;;;13.49;70.69;99998.25;4986559;28;20030;-28
2023/03/21 08:08:39;;;;;;;30.80;15.93;;;;;;;13.59;69.79;99995.75;4986820;28;20050;-28
2023/03/21 08:11:05;;;;;;;26.73;17.98;;;;;;;13.60;68.54;99997.38;4987238;28;20022;-28
2023/03/21 08:13:31;;;;;;;29.55;15.35;;;;;;;13.49;69.78;100011.66;4990060;28;20036;-28
2023/03/21 08:15:57;;;;;;;25.98;15.43;;;;;;;13.85;70.25;100005.06;4972662;28;20044;-28
2023/03/21 08:18:22;;;;;;;23.00;13.80;;;;;;;14.14;69.08;100009.53;4989951;28;20513;-28
2023/03/21 08:20:55;;;;;;;29.40;15.70;;;;;;;14.28;66.98;99994.75;4990669;28;20019;-28
2023/03/21 08:23:21;;;;;;;30.52;18.17;;;;;;;14.35;66.43;99991.91;4989847;28;20041;-29
2023/03/21 08:25:52;;;;;;;33.22;17.08;;;;;;;14.43;66.13;99997.66;4990092;28;20053;-28
2023/03/21 08:28:18;;;;;;;25.33;14.80;;;;;;;14.49;66.17;100003.13;4990350;28;20026;-28
2023/03/21 08:30:43;;;;;;;26.63;14.88;;;;;;;14.66;65.70;99993.19;4989463;28;20033;-28
2023/03/21 08:33:09;;;;;;;26.52;15.23;;;;;;;14.42;66.54;99987.97;4989355;28;20038;-28
2023/03/21 08:35:35;;;;;;;26.70;16.25;;;;;;;14.76;65.75;99982.59;4989561;28;20034;-28
2023/03/21 08:38:02;;;;;;;27.45;15.75;;;;;;;15.12;64.42;99974.97;4990095;28;20028;-28
2023/03/21 08:40:28;;;;;;;31.75;19.70;;;;;;;15.24;64.29;99956.03;4989410;28;20034;-28
2023/03/21 08:42:54;;;;;;;34.13;22.13;;;;;;;15.33;62.86;99964.47;4989450;28;20414;-28
2023/03/21 08:45:19;;;;;;;28.52;15.82;;;;;;;15.45;63.75;99973.19;4989561;28;20097;-28
2023/03/21 08:47:46;;;;;;;25.13;17.00;;;;;;;15.54;62.77;99985.09;4989346;28;20084;-28
2023/03/21 08:50:15;;;;;;;31.35;15.82;;;;;;;15.64;63.52;99955.63;4989577;28;20036;-28
2023/03/21 08:52:41;;;;;;;22.70;12.98;;;;;;;15.71;62.47;99982.28;4989509;28;20026;-28
2023/03/21 08:55:06;;;;;;;24.77;13.45;;;;;;;16.03;62.25;99971.56;4988713;28;20026;-28
2023/03/21 08:57:32;;;;;;;22.75;13.38;;;;;;;16.31;61.84;99971.53;4989290;28;20058;-28
2023/03/21 08:59:57;;;;;;;27.83;14.20;;;;;;;15.95;61.97;99961.28;4988989;28;20073;-29
2023/03/21 09:02:23;;;;;;;24.80;14.38;;;;;;;16.39;59.96;99966.44;4989298;28;20037;-28
2023/03/21 09:04:48;;;;;;;22.15;14.07;;;;;;;16.30;60.22;99968.00;4989022;28;20498;-28
2023/03/21 09:07:16;;;;;;;23.00;13.80;;;;;;;16.22;60.04;99961.25;4989088;28;20022;-28
2023/03/21 09:09:42;;;;;;;;;;;;;;;16.11;61.00;99947.97;4989836;28;20023;-28
2023/03/21 09:12:08;;;;;;;25.75;13.98;;;;;;;16.13;60.40;99940.44;4989088;28;19924;-28
2023/03/21 09:14:34;;;;;;;21.30;14.25;;;;;;;16.25;59.90;99939.19;4989156;28;20065;-28
2023/03/21 09:17:00;;;;;;;24.17;12.80;;;;;;;15.96;58.90;99946.78;4989203;28;20052;-28
2023/03/21 09:19:26;;;;;;;23.48;12.00;;;;;;;16.16;58.73;99945.31;4989478;28;20114;-28
2023/03/21 09:21:52;;;;;;;21.15;14.02;;;;;;;15.99;58.48;99935.50;4988626;28;20026;-29
2023/03/21 09:24:19;;;;;;;23.73;13.90;;;;;;;16.17;58.72;99936.97;4988902;28;20049;-28
2023/03/21 09:26:45;;;;;;;22.75;13.13;;;;;;;16.23;58.33;99940.53;4988683;28;20568;-28
2023/03/21 09:29:10;;;;;;;21.88;13.27;;;;;;;16.25;59.16;99938.38;4988749;28;20081;-28
2023/03/21 09:31:36;;;;;;;24.45;13.00;;;;;;;15.92;59.72;99940.31;4987615;28;20041;-28
2023/03/21 09:34:02;;;;;;;20.30;13.07;;;;;;;16.15;59.67;99933.72;4988060;28;20402;-28
2023/03/21 09:36:31;;;;;;;21.73;12.07;;;;;;;16.34;58.50;99931.41;4987928;28;20026;-28
2023/03/21 09:38:56;;;;;;;22.77;12.75;;;;;;;16.53;57.61;99930.97;4988355;28;20026;-28
2023/03/21 09:41:25;;;;;;;22.67;13.88;;;;;;;16.14;58.95;99924.06;4988416;28;20749;-28
2023/03/21 09:44:29;;;;;;;23.77;14.57;;;;;;;16.23;59.80;99924.38;4988429;28;20462;-28
2023/03/21 09:47:07;;;;;;;23.50;15.02;;;;;;;16.29;60.32;99915.25;4988369;28;20041;-28
2023/03/21 09:49:48;;;;;;;23.10;15.00;;;;;;;16.10;60.14;99914.06;4988169;28;20034;-28
2023/03/21 09:52:25;;;;;;;25.45;16.10;;;;;;;15.74;60.66;99911.13;4988110;28;20030;-28
2023/03/21 09:54:52;;;;;;;31.40;20.48;;;;;;;15.98;59.67;99917.75;4988138;28;20053;-28
2023/03/21 09:57:33;;;;;;;22.73;13.13;;;;;;;16.63;59.25;99920.25;4988177;28;20113;-28
2023/03/21 10:00:11;;;;;;;27.80;15.82;;;;;;;16.53;58.36;99904.91;4988234;28;20137;-28
2023/03/21 10:02:38;;;;;;;;;;;;;;;17.12;58.64;99919.97;4988668;28;20030;-28
2023/03/21 10:05:19;;;;;;;36.45;21.08;;;;;;;17.50;56.60;99923.25;4987888;28;20335;-28
2023/03/21 10:07:59;;;;;;;20.98;12.98;;;;;;;17.14;56.33;99927.75;4988148;28;20030;-28
2023/03/21 10:10:34;;;;;;;42.22;25.27;;;;;;;17.82;56.40;99906.81;4987627;28;20029;-29
2023/03/21 10:13:00;;;;;;;20.60;14.23;;;;;;;18.28;52.90;99930.25;4987653;28;20038;-28
2023/03/21 10:15:26;;;;;;;27.67;16.83;;;;;;;18.47;53.02;99935.88;4987951;28;20030;-28
2023/03/21 10:18:00;;;;;;;20.75;13.60;;;;;;;18.97;51.92;99925.97;4987788;28;20034;-28
2023/03/21 10:20:32;;;;;;;25.13;14.18;;;;;;;18.71;51.77;99936.06;4987868;28;20076;-28
2023/03/21 10:23:00;;;;;;;33.33;14.00;;;;;;;18.86;52.12;99925.22;4987634;28;20022;-28
2023/03/21 10:25:29;;;;;;;;;;;;;;;18.90;53.53;99930.06;4988004;28;20161;-28
2023/03/21 10:27:55;;;;;;;26.17;17.48;;;;;;;18.78;52.79;99933.06;4987819;28;20395;-28
2023/03/21 10:30:29;;;;;;;22.85;15.07;;;;;;;18.62;53.46;99932.31;4987725;28;20076;-28
2023/03/21 10:33:03;;;;;;;20.33;13.38;;;;;;;18.46;53.34;99940.44;4987693;28;20058;-28
2023/03/21 10:35:32;;;;;;;25.13;15.43;;;;;;;18.89;52.44;99929.25;4987279;28;20030;-28
2023/03/21 10:38:01;;;;;;;36.05;16.90;;;;;;;19.14;53.17;99917.50;4987323;28;20026;-28
2023/03/21 10:40:27;;;;;;;26.58;14.70;;;;;;;19.44;52.77;99923.81;4970191;28;20070;-28
2023/03/21 10:43:14;;;;;;;36.03;18.58;;;;;;;19.79;49.40;99908.44;4987207;28;20424;-29
2023/03/21 10:45:39;;;;;;;46.25;24.42;;;;;;;20.02;48.88;99914.97;4987166;28;20034;-28
2023/03/21 10:48:07;;;;;;;22.92;13.00;;;;;;;19.90;48.58;99888.31;4987339;28;20038;-28
2023/03/21 10:50:34;;;;;;;39.47;22.40;;;;;;;19.13;50.65;99880.75;4987394;28;20421;-28
2023/03/21 10:53:00;;;;;;;25.30;15.10;;;;;;;19.02;51.03;99876.50;4987139;28;20129;-29
2023/03/21 10:55:30;;;;;;;20.38;12.85;;;;;;;18.92;51.26;99874.69;4987504;28;20301;-28
2023/03/21 10:58:07;;;;;;;68.40;34.63;;;;;;;18.76;52.05;99871.22;4986967;28;20428;-28
2023/03/21 11:00:42;;;;;;;42.38;21.48;;;;;;;18.09;54.14;99850.94;4987485;28;20042;-28
2023/03/21 11:03:21;;;;;;;22.33;13.30;;;;;;;18.34;53.62;99844.66;4987380;28;20134;-28
2023/03/21 11:05:51;;;;;;;23.95;14.05;;;;;;;18.52;52.99;99849.44;4987620;28;20030;-28
2023/03/21 11:08:18;;;;;;;27.15;15.57;;;;;;;18.74;52.81;99850.97;4987319;28;20030;-28
2023/03/21 11:11:08;;;;;;;24.35;14.73;;;;;;;18.81;53.46;99851.50;4987224;28;20033;-28
2023/03/21 11:13:42;;;;;;;68.18;31.67;;;;;;;18.93;53.13;99829.53;4986905;28;20038;-28
2023/03/21 11:16:22;;;;;;;80.30;36.72;;;;;;;18.72;51.86;99821.53;4987221;28;20489;-28
2023/03/21 11:18:55;;;;;;;32.25;17.85;;;;;;;18.81;52.82;99846.88;4987379;28;20058;-28
2023/03/21 11:21:26;;;;;;;24.52;14.57;;;;;;;19.16;51.73;99828.81;4986607;28;20022;-28
2023/03/21 11:23:55;;;;;;;22.35;12.45;;;;;;;19.04;53.40;99817.56;4985965;28;20525;-28
2023/03/21 11:26:26;;;;;;;21.92;14.07;;;;;;;19.00;52.94;99832.72;4985785;28;20042;-28
2023/03/21 11:28:52;;;;;;;92.35;45.92;;;;;;;18.57;52.96;99825.13;4986305;28;20053;-28
2023/03/21 11:31:19;;;;;;;79.30;40.80;;;;;;;18.07;54.96;99794.56;4986895;28;20041;-28